Terminal Aerodrome Forecast
Issued by NWS

Home | Current Version | Previous Version | Text Only | Print | Product List | Glossary On
Versions: 1 2 3 4 5 6 7 8 9 10 11 12 13 14
455
FTUS43 KOAX 280824 AAA
TAFBFF
TAF AMD
KBFF 280824Z 2808/2906 30004KT P6SM FEW200
      TEMPO 2808/2812 VRB03KT 3/4SM BR VV002
     FM281800 30008KT P6SM SCT110=

USA.gov is the U.S. government's official web portal to all federal, state and local government web resources and services.